sensor_id;sensor_type;location;lat;lon;timestamp;P1;durP1;ratioP1;P2;durP2;ratioP2
9420;SDS011;4749;51.398;5.466;2023-04-03T00:01:21;8.87;;;5.97;;
9420;SDS011;4749;51.398;5.466;2023-04-03T00:03:48;14.63;;;6.70;;
9420;SDS011;4749;51.398;5.466;2023-04-03T00:06:16;8.90;;;6.40;;
9420;SDS011;4749;51.398;5.466;2023-04-03T00:08:43;7.83;;;5.77;;
9420;SDS011;4749;51.398;5.466;2023-04-03T00:11:10;9.63;;;5.63;;
9420;SDS011;4749;51.398;5.466;2023-04-03T00:13:38;7.77;;;6.10;;
9420;SDS011;4749;51.398;5.466;2023-04-03T00:16:07;11.03;;;6.57;;
9420;SDS011;4749;51.398;5.466;2023-04-03T00:18:36;11.20;;;6.27;;
9420;SDS011;4749;51.398;5.466;2023-04-03T00:21:05;9.23;;;6.30;;
9420;SDS011;4749;51.398;5.466;2023-04-03T00:23:33;9.50;;;6.57;;
9420;SDS011;4749;51.398;5.466;2023-04-03T00:26:01;11.80;;;6.27;;
9420;SDS011;4749;51.398;5.466;2023-04-03T00:28:28;11.03;;;6.13;;
9420;SDS011;4749;51.398;5.466;2023-04-03T00:30:55;9.50;;;5.93;;
9420;SDS011;4749;51.398;5.466;2023-04-03T00:33:23;9.03;;;6.50;;
9420;SDS011;4749;51.398;5.466;2023-04-03T00:35:50;10.10;;;6.10;;
9420;SDS011;4749;51.398;5.466;2023-04-03T00:38:18;11.20;;;6.80;;
9420;SDS011;4749;51.398;5.466;2023-04-03T00:40:47;10.80;;;6.00;;
9420;SDS011;4749;51.398;5.466;2023-04-03T00:43:17;7.97;;;5.47;;
9420;SDS011;4749;51.398;5.466;2023-04-03T00:45:53;10.37;;;6.00;;
9420;SDS011;4749;51.398;5.466;2023-04-03T00:51:03;10.73;;;5.67;;
9420;SDS011;4749;51.398;5.466;2023-04-03T00:53:35;12.23;;;5.90;;
9420;SDS011;4749;51.398;5.466;2023-04-03T00:56:18;7.37;;;5.23;;
9420;SDS011;4749;51.398;5.466;2023-04-03T00:58:59;9.80;;;5.90;;
9420;SDS011;4749;51.398;5.466;2023-04-03T01:01:32;9.47;;;5.87;;
9420;SDS011;4749;51.398;5.466;2023-04-03T01:04:00;10.77;;;5.93;;
9420;SDS011;4749;51.398;5.466;2023-04-03T01:06:30;8.20;;;6.30;;
9420;SDS011;4749;51.398;5.466;2023-04-03T01:09:02;12.97;;;6.20;;
9420;SDS011;4749;51.398;5.466;2023-04-03T01:11:30;8.33;;;5.73;;
9420;SDS011;4749;51.398;5.466;2023-04-03T01:13:58;10.53;;;5.97;;
9420;SDS011;4749;51.398;5.466;2023-04-03T01:16:25;9.00;;;6.00;;
9420;SDS011;4749;51.398;5.466;2023-04-03T01:18:53;8.70;;;6.07;;
9420;SDS011;4749;51.398;5.466;2023-04-03T01:21:27;9.23;;;6.57;;
9420;SDS011;4749;51.398;5.466;2023-04-03T01:24:38;8.00;;;6.40;;
9420;SDS011;4749;51.398;5.466;2023-04-03T01:27:06;8.10;;;6.03;;
9420;SDS011;4749;51.398;5.466;2023-04-03T01:29:35;8.10;;;5.90;;
9420;SDS011;4749;51.398;5.466;2023-04-03T01:32:04;8.23;;;6.07;;
9420;SDS011;4749;51.398;5.466;2023-04-03T01:34:31;10.80;;;7.20;;
9420;SDS011;4749;51.398;5.466;2023-04-03T01:36:58;8.77;;;6.33;;
9420;SDS011;4749;51.398;5.466;2023-04-03T01:39:25;9.30;;;6.10;;
9420;SDS011;4749;51.398;5.466;2023-04-03T01:41:53;10.47;;;6.67;;
9420;SDS011;4749;51.398;5.466;2023-04-03T01:44:20;8.90;;;6.13;;
9420;SDS011;4749;51.398;5.466;2023-04-03T01:46:47;9.77;;;6.10;;
9420;SDS011;4749;51.398;5.466;2023-04-03T01:49:14;8.70;;;6.37;;
9420;SDS011;4749;51.398;5.466;2023-04-03T01:51:41;8.20;;;6.63;;
9420;SDS011;4749;51.398;5.466;2023-04-03T01:54:08;9.47;;;6.80;;
9420;SDS011;4749;51.398;5.466;2023-04-03T01:56:35;7.93;;;6.50;;
9420;SDS011;4749;51.398;5.466;2023-04-03T01:59:03;8.63;;;6.50;;
9420;SDS011;4749;51.398;5.466;2023-04-03T02:01:30;7.10;;;6.07;;
9420;SDS011;4749;51.398;5.466;2023-04-03T02:03:57;8.67;;;6.50;;
9420;SDS011;4749;51.398;5.466;2023-04-03T02:06:24;11.10;;;6.77;;
9420;SDS011;4749;51.398;5.466;2023-04-03T02:08:52;8.13;;;6.37;;
9420;SDS011;4749;51.398;5.466;2023-04-03T02:11:19;10.10;;;6.93;;
9420;SDS011;4749;51.398;5.466;2023-04-03T02:13:46;8.63;;;6.53;;
9420;SDS011;4749;51.398;5.466;2023-04-03T02:16:14;9.00;;;7.03;;
9420;SDS011;4749;51.398;5.466;2023-04-03T02:18:41;9.30;;;6.50;;
9420;SDS011;4749;51.398;5.466;2023-04-03T02:21:09;10.23;;;6.87;;
9420;SDS011;4749;51.398;5.466;2023-04-03T02:23:36;8.27;;;6.37;;
9420;SDS011;4749;51.398;5.466;2023-04-03T02:26:07;7.83;;;6.40;;
9420;SDS011;4749;51.398;5.466;2023-04-03T02:28:37;6.13;;;5.43;;
9420;SDS011;4749;51.398;5.466;2023-04-03T02:31:05;9.37;;;6.63;;
9420;SDS011;4749;51.398;5.466;2023-04-03T02:33:33;11.10;;;7.23;;
9420;SDS011;4749;51.398;5.466;2023-04-03T02:36:03;8.93;;;6.53;;
9420;SDS011;4749;51.398;5.466;2023-04-03T02:38:32;10.03;;;6.30;;
9420;SDS011;4749;51.398;5.466;2023-04-03T02:41:02;8.33;;;6.10;;
9420;SDS011;4749;51.398;5.466;2023-04-03T02:43:31;8.10;;;6.20;;
9420;SDS011;4749;51.398;5.466;2023-04-03T02:45:59;8.43;;;5.63;;
9420;SDS011;4749;51.398;5.466;2023-04-03T02:48:27;8.33;;;6.40;;
9420;SDS011;4749;51.398;5.466;2023-04-03T02:50:54;8.53;;;6.00;;
9420;SDS011;4749;51.398;5.466;2023-04-03T02:53:21;6.80;;;5.57;;
9420;SDS011;4749;51.398;5.466;2023-04-03T02:55:49;8.23;;;5.33;;
9420;SDS011;4749;51.398;5.466;2023-04-03T02:58:16;8.17;;;5.60;;
9420;SDS011;4749;51.398;5.466;2023-04-03T03:00:43;6.17;;;5.43;;
9420;SDS011;4749;51.398;5.466;2023-04-03T03:03:10;8.23;;;5.40;;
9420;SDS011;4749;51.398;5.466;2023-04-03T03:05:37;6.90;;;5.00;;
9420;SDS011;4749;51.398;5.466;2023-04-03T03:08:04;8.37;;;5.67;;
9420;SDS011;4749;51.398;5.466;2023-04-03T03:10:31;6.00;;;5.30;;
9420;SDS011;4749;51.398;5.466;2023-04-03T03:12:59;9.23;;;5.60;;
9420;SDS011;4749;51.398;5.466;2023-04-03T03:15:27;7.00;;;4.60;;
9420;SDS011;4749;51.398;5.466;2023-04-03T03:17:54;7.30;;;5.18;;
9420;SDS011;4749;51.398;5.466;2023-04-03T03:20:22;6.40;;;5.13;;
9420;SDS011;4749;51.398;5.466;2023-04-03T03:22:49;5.90;;;4.60;;
9420;SDS011;4749;51.398;5.466;2023-04-03T03:25:16;8.03;;;5.27;;
9420;SDS011;4749;51.398;5.466;2023-04-03T03:27:43;9.23;;;5.20;;
9420;SDS011;4749;51.398;5.466;2023-04-03T03:30:10;5.77;;;5.07;;
9420;SDS011;4749;51.398;5.466;2023-04-03T03:32:38;9.33;;;5.13;;
9420;SDS011;4749;51.398;5.466;2023-04-03T03:35:05;6.07;;;4.90;;
9420;SDS011;4749;51.398;5.466;2023-04-03T03:37:33;9.93;;;5.97;;
9420;SDS011;4749;51.398;5.466;2023-04-03T03:40:00;7.17;;;5.60;;
9420;SDS011;4749;51.398;5.466;2023-04-03T03:42:27;7.33;;;4.63;;
9420;SDS011;4749;51.398;5.466;2023-04-03T03:44:54;7.90;;;4.80;;
9420;SDS011;4749;51.398;5.466;2023-04-03T03:47:21;6.47;;;4.70;;
9420;SDS011;4749;51.398;5.466;2023-04-03T03:49:48;7.53;;;5.00;;
9420;SDS011;4749;51.398;5.466;2023-04-03T03:52:16;9.43;;;4.50;;
9420;SDS011;4749;51.398;5.466;2023-04-03T03:54:43;7.80;;;4.60;;
9420;SDS011;4749;51.398;5.466;2023-04-03T03:57:10;7.63;;;4.80;;
9420;SDS011;4749;51.398;5.466;2023-04-03T03:59:37;6.17;;;4.40;;
9420;SDS011;4749;51.398;5.466;2023-04-03T04:02:04;6.23;;;4.20;;
9420;SDS011;4749;51.398;5.466;2023-04-03T04:04:32;7.37;;;4.03;;
9420;SDS011;4749;51.398;5.466;2023-04-03T04:06:59;5.97;;;4.40;;
9420;SDS011;4749;51.398;5.466;2023-04-03T04:09:26;6.03;;;4.27;;
9420;SDS011;4749;51.398;5.466;2023-04-03T04:11:53;7.13;;;4.37;;
9420;SDS011;4749;51.398;5.466;2023-04-03T04:14:21;6.60;;;4.47;;
9420;SDS011;4749;51.398;5.466;2023-04-03T04:16:48;5.87;;;4.07;;
9420;SDS011;4749;51.398;5.466;2023-04-03T04:19:15;7.53;;;3.73;;
9420;SDS011;4749;51.398;5.466;2023-04-03T04:21:42;8.93;;;4.10;;
9420;SDS011;4749;51.398;5.466;2023-04-03T04:24:09;7.60;;;4.40;;
9420;SDS011;4749;51.398;5.466;2023-04-03T04:26:37;6.67;;;4.23;;
9420;SDS011;4749;51.398;5.466;2023-04-03T04:29:04;4.23;;;3.30;;
9420;SDS011;4749;51.398;5.466;2023-04-03T04:31:31;5.87;;;3.77;;
9420;SDS011;4749;51.398;5.466;2023-04-03T04:33:58;5.60;;;3.83;;
9420;SDS011;4749;51.398;5.466;2023-04-03T04:36:25;7.00;;;3.73;;
9420;SDS011;4749;51.398;5.466;2023-04-03T04:38:53;6.33;;;3.70;;
9420;SDS011;4749;51.398;5.466;2023-04-03T04:41:20;6.40;;;4.10;;
9420;SDS011;4749;51.398;5.466;2023-04-03T04:43:48;7.33;;;3.73;;
9420;SDS011;4749;51.398;5.466;2023-04-03T04:46:16;7.83;;;4.23;;
9420;SDS011;4749;51.398;5.466;2023-04-03T04:48:44;6.50;;;3.90;;
9420;SDS011;4749;51.398;5.466;2023-04-03T04:51:11;8.00;;;3.90;;
9420;SDS011;4749;51.398;5.466;2023-04-03T04:53:39;6.73;;;3.83;;
9420;SDS011;4749;51.398;5.466;2023-04-03T04:56:06;7.90;;;3.77;;
9420;SDS011;4749;51.398;5.466;2023-04-03T04:58:33;5.50;;;3.60;;
9420;SDS011;4749;51.398;5.466;2023-04-03T05:01:01;6.40;;;4.00;;
9420;SDS011;4749;51.398;5.466;2023-04-03T05:03:34;7.30;;;3.33;;
9420;SDS011;4749;51.398;5.466;2023-04-03T05:06:02;5.77;;;3.40;;
9420;SDS011;4749;51.398;5.466;2023-04-03T05:08:30;8.03;;;3.83;;
9420;SDS011;4749;51.398;5.466;2023-04-03T05:10:57;7.07;;;3.30;;
9420;SDS011;4749;51.398;5.466;2023-04-03T05:13:24;4.40;;;2.90;;
9420;SDS011;4749;51.398;5.466;2023-04-03T05:15:51;6.53;;;3.17;;
9420;SDS011;4749;51.398;5.466;2023-04-03T05:18:19;6.40;;;3.23;;
9420;SDS011;4749;51.398;5.466;2023-04-03T05:20:47;6.20;;;2.90;;
9420;SDS011;4749;51.398;5.466;2023-04-03T05:23:16;4.53;;;2.87;;
9420;SDS011;4749;51.398;5.466;2023-04-03T05:25:43;4.10;;;2.73;;
9420;SDS011;4749;51.398;5.466;2023-04-03T05:28:13;4.30;;;2.80;;
9420;SDS011;4749;51.398;5.466;2023-04-03T05:30:40;5.13;;;2.90;;
9420;SDS011;4749;51.398;5.466;2023-04-03T05:33:07;4.37;;;2.57;;
9420;SDS011;4749;51.398;5.466;2023-04-03T05:35:35;6.40;;;2.97;;
9420;SDS011;4749;51.398;5.466;2023-04-03T05:38:08;4.63;;;2.60;;
9420;SDS011;4749;51.398;5.466;2023-04-03T05:40:35;5.83;;;3.07;;
9420;SDS011;4749;51.398;5.466;2023-04-03T05:43:02;5.23;;;2.60;;
9420;SDS011;4749;51.398;5.466;2023-04-03T05:45:29;8.30;;;2.77;;
9420;SDS011;4749;51.398;5.466;2023-04-03T05:47:56;5.13;;;2.40;;
9420;SDS011;4749;51.398;5.466;2023-04-03T05:50:24;4.47;;;2.53;;
9420;SDS011;4749;51.398;5.466;2023-04-03T05:52:51;4.50;;;2.50;;
9420;SDS011;4749;51.398;5.466;2023-04-03T05:55:22;4.23;;;2.90;;
9420;SDS011;4749;51.398;5.466;2023-04-03T05:57:49;4.63;;;1.80;;
9420;SDS011;4749;51.398;5.466;2023-04-03T06:00:17;5.13;;;2.10;;
9420;SDS011;4749;51.398;5.466;2023-04-03T06:02:44;6.60;;;2.50;;
9420;SDS011;4749;51.398;5.466;2023-04-03T06:05:12;4.80;;;2.00;;
9420;SDS011;4749;51.398;5.466;2023-04-03T06:07:39;5.13;;;2.30;;
9420;SDS011;4749;51.398;5.466;2023-04-03T06:10:07;4.27;;;2.50;;
9420;SDS011;4749;51.398;5.466;2023-04-03T06:12:35;4.37;;;2.00;;
9420;SDS011;4749;51.398;5.466;2023-04-03T06:15:02;4.03;;;2.10;;
9420;SDS011;4749;51.398;5.466;2023-04-03T06:17:30;3.87;;;1.73;;
9420;SDS011;4749;51.398;5.466;2023-04-03T06:19:57;4.63;;;2.20;;
9420;SDS011;4749;51.398;5.466;2023-04-03T06:22:24;5.53;;;2.30;;
9420;SDS011;4749;51.398;5.466;2023-04-03T06:24:52;6.40;;;2.23;;
9420;SDS011;4749;51.398;5.466;2023-04-03T06:27:19;5.00;;;1.80;;
9420;SDS011;4749;51.398;5.466;2023-04-03T06:29:46;8.00;;;2.67;;
9420;SDS011;4749;51.398;5.466;2023-04-03T06:32:15;4.40;;;2.20;;
9420;SDS011;4749;51.398;5.466;2023-04-03T06:34:42;6.27;;;2.50;;
9420;SDS011;4749;51.398;5.466;2023-04-03T06:37:20;7.40;;;2.50;;
9420;SDS011;4749;51.398;5.466;2023-04-03T06:39:49;5.70;;;2.00;;
9420;SDS011;4749;51.398;5.466;2023-04-03T06:42:16;4.03;;;2.07;;
9420;SDS011;4749;51.398;5.466;2023-04-03T06:44:43;6.17;;;2.20;;
9420;SDS011;4749;51.398;5.466;2023-04-03T06:47:11;5.40;;;2.20;;
9420;SDS011;4749;51.398;5.466;2023-04-03T06:49:43;5.43;;;1.77;;
9420;SDS011;4749;51.398;5.466;2023-04-03T06:52:11;4.93;;;2.00;;
9420;SDS011;4749;51.398;5.466;2023-04-03T06:54:39;6.60;;;2.40;;
9420;SDS011;4749;51.398;5.466;2023-04-03T06:57:07;5.43;;;2.10;;
9420;SDS011;4749;51.398;5.466;2023-04-03T06:59:35;6.30;;;2.17;;
9420;SDS011;4749;51.398;5.466;2023-04-03T07:02:03;3.90;;;1.70;;
9420;SDS011;4749;51.398;5.466;2023-04-03T07:04:30;3.43;;;1.93;;
9420;SDS011;4749;51.398;5.466;2023-04-03T07:06:59;3.47;;;1.73;;
9420;SDS011;4749;51.398;5.466;2023-04-03T07:09:26;5.00;;;1.97;;
9420;SDS011;4749;51.398;5.466;2023-04-03T07:11:53;5.33;;;1.90;;
9420;SDS011;4749;51.398;5.466;2023-04-03T07:14:21;4.50;;;1.87;;
9420;SDS011;4749;51.398;5.466;2023-04-03T07:16:48;3.33;;;1.70;;
9420;SDS011;4749;51.398;5.466;2023-04-03T07:19:15;4.77;;;1.80;;
9420;SDS011;4749;51.398;5.466;2023-04-03T07:21:44;6.80;;;2.33;;
9420;SDS011;4749;51.398;5.466;2023-04-03T07:24:11;6.93;;;2.23;;
9420;SDS011;4749;51.398;5.466;2023-04-03T07:26:42;5.37;;;1.83;;
9420;SDS011;4749;51.398;5.466;2023-04-03T07:29:10;3.97;;;2.10;;
9420;SDS011;4749;51.398;5.466;2023-04-03T07:31:40;6.00;;;1.67;;
9420;SDS011;4749;51.398;5.466;2023-04-03T07:34:07;7.37;;;2.00;;
9420;SDS011;4749;51.398;5.466;2023-04-03T07:36:34;4.67;;;1.97;;
9420;SDS011;4749;51.398;5.466;2023-04-03T07:39:02;4.47;;;1.60;;
9420;SDS011;4749;51.398;5.466;2023-04-03T07:41:30;7.00;;;1.80;;
9420;SDS011;4749;51.398;5.466;2023-04-03T07:43:57;7.40;;;1.77;;
9420;SDS011;4749;51.398;5.466;2023-04-03T07:46:24;6.03;;;2.00;;
9420;SDS011;4749;51.398;5.466;2023-04-03T07:48:52;3.93;;;1.83;;
9420;SDS011;4749;51.398;5.466;2023-04-03T07:51:22;5.33;;;1.93;;
9420;SDS011;4749;51.398;5.466;2023-04-03T07:53:50;4.97;;;1.83;;
9420;SDS011;4749;51.398;5.466;2023-04-03T07:56:18;3.53;;;1.60;;
9420;SDS011;4749;51.398;5.466;2023-04-03T07:58:45;4.77;;;1.80;;
9420;SDS011;4749;51.398;5.466;2023-04-03T08:01:12;4.80;;;1.60;;
9420;SDS011;4749;51.398;5.466;2023-04-03T08:03:39;3.27;;;1.73;;
9420;SDS011;4749;51.398;5.466;2023-04-03T08:06:07;8.07;;;1.80;;
9420;SDS011;4749;51.398;5.466;2023-04-03T08:08:41;4.80;;;1.70;;
9420;SDS011;4749;51.398;5.466;2023-04-03T08:11:09;3.83;;;1.87;;
9420;SDS011;4749;51.398;5.466;2023-04-03T08:13:37;5.23;;;1.70;;
9420;SDS011;4749;51.398;5.466;2023-04-03T08:16:08;5.37;;;1.50;;
9420;SDS011;4749;51.398;5.466;2023-04-03T08:18:45;3.53;;;1.60;;
9420;SDS011;4749;51.398;5.466;2023-04-03T08:21:12;3.40;;;1.40;;
9420;SDS011;4749;51.398;5.466;2023-04-03T08:23:40;3.03;;;1.50;;
9420;SDS011;4749;51.398;5.466;2023-04-03T08:26:12;3.57;;;1.67;;
9420;SDS011;4749;51.398;5.466;2023-04-03T08:28:42;2.53;;;2.00;;
9420;SDS011;4749;51.398;5.466;2023-04-03T08:31:11;4.17;;;1.50;;
9420;SDS011;4749;51.398;5.466;2023-04-03T08:33:42;3.10;;;1.13;;
9420;SDS011;4749;51.398;5.466;2023-04-03T08:36:16;4.30;;;1.20;;
9420;SDS011;4749;51.398;5.466;2023-04-03T08:38:49;3.83;;;1.73;;
9420;SDS011;4749;51.398;5.466;2023-04-03T08:49:49;4.40;;;1.27;;
9420;SDS011;4749;51.398;5.466;2023-04-03T08:52:35;2.10;;;1.20;;
9420;SDS011;4749;51.398;5.466;2023-04-03T08:58:18;7.63;;;1.30;;
9420;SDS011;4749;51.398;5.466;2023-04-03T09:00:59;3.00;;;1.13;;
9420;SDS011;4749;51.398;5.466;2023-04-03T09:03:42;3.03;;;1.37;;
9420;SDS011;4749;51.398;5.466;2023-04-03T09:06:19;3.10;;;1.17;;
9420;SDS011;4749;51.398;5.466;2023-04-03T09:12:16;2.67;;;1.03;;
9420;SDS011;4749;51.398;5.466;2023-04-03T09:17:59;3.40;;;1.00;;
9420;SDS011;4749;51.398;5.466;2023-04-03T09:20:39;2.67;;;1.10;;
9420;SDS011;4749;51.398;5.466;2023-04-03T09:23:19;1.57;;;0.70;;
9420;SDS011;4749;51.398;5.466;2023-04-03T09:26:04;0.90;;;0.60;;
9420;SDS011;4749;51.398;5.466;2023-04-03T09:28:40;1.53;;;0.77;;
9420;SDS011;4749;51.398;5.466;2023-04-03T09:31:20;1.40;;;0.70;;
9420;SDS011;4749;51.398;5.466;2023-04-03T09:33:53;0.93;;;0.70;;
9420;SDS011;4749;51.398;5.466;2023-04-03T09:39:27;2.83;;;0.60;;
9420;SDS011;4749;51.398;5.466;2023-04-03T09:42:00;1.60;;;0.50;;
9420;SDS011;4749;51.398;5.466;2023-04-03T09:44:35;1.57;;;0.50;;
9420;SDS011;4749;51.398;5.466;2023-04-03T09:47:18;1.17;;;1.03;;
9420;SDS011;4749;51.398;5.466;2023-04-03T09:52:42;2.93;;;0.90;;
9420;SDS011;4749;51.398;5.466;2023-04-03T09:55:16;2.80;;;0.63;;
9420;SDS011;4749;51.398;5.466;2023-04-03T09:58:00;1.30;;;0.70;;
9420;SDS011;4749;51.398;5.466;2023-04-03T10:03:03;1.07;;;0.50;;
9420;SDS011;4749;51.398;5.466;2023-04-03T10:05:39;2.83;;;0.60;;
9420;SDS011;4749;51.398;5.466;2023-04-03T10:08:09;5.93;;;0.83;;
9420;SDS011;4749;51.398;5.466;2023-04-03T10:10:48;1.77;;;0.80;;
9420;SDS011;4749;51.398;5.466;2023-04-03T10:13:32;1.17;;;0.50;;
9420;SDS011;4749;51.398;5.466;2023-04-03T10:16:14;2.23;;;0.77;;
9420;SDS011;4749;51.398;5.466;2023-04-03T10:19:16;2.27;;;0.73;;
9420;SDS011;4749;51.398;5.466;2023-04-03T10:27:55;3.63;;;0.60;;
9420;SDS011;4749;51.398;5.466;2023-04-03T10:33:56;1.83;;;0.77;;
9420;SDS011;4749;51.398;5.466;2023-04-03T10:37:04;1.67;;;0.87;;
9420;SDS011;4749;51.398;5.466;2023-04-03T10:42:38;1.10;;;0.63;;
9420;SDS011;4749;51.398;5.466;2023-04-03T10:48:33;2.77;;;0.80;;
9420;SDS011;4749;51.398;5.466;2023-04-03T10:51:22;2.47;;;0.80;;
9420;SDS011;4749;51.398;5.466;2023-04-03T10:56:47;1.93;;;0.80;;
9420;SDS011;4749;51.398;5.466;2023-04-03T11:02:36;4.00;;;1.20;;
9420;SDS011;4749;51.398;5.466;2023-04-03T11:05:42;2.57;;;1.30;;
9420;SDS011;4749;51.398;5.466;2023-04-03T11:08:37;2.47;;;1.10;;
9420;SDS011;4749;51.398;5.466;2023-04-03T11:11:24;1.17;;;0.70;;
9420;SDS011;4749;51.398;5.466;2023-04-03T11:14:17;3.00;;;0.90;;
9420;SDS011;4749;51.398;5.466;2023-04-03T11:17:05;5.50;;;0.97;;
9420;SDS011;4749;51.398;5.466;2023-04-03T11:19:50;2.13;;;0.73;;
9420;SDS011;4749;51.398;5.466;2023-04-03T11:22:32;3.90;;;1.00;;
9420;SDS011;4749;51.398;5.466;2023-04-03T11:30:30;1.13;;;0.70;;
9420;SDS011;4749;51.398;5.466;2023-04-03T11:33:21;2.43;;;0.70;;
9420;SDS011;4749;51.398;5.466;2023-04-03T11:36:10;0.83;;;0.63;;
9420;SDS011;4749;51.398;5.466;2023-04-03T11:38:51;2.30;;;0.80;;
9420;SDS011;4749;51.398;5.466;2023-04-03T11:41:30;0.93;;;0.75;;
9420;SDS011;4749;51.398;5.466;2023-04-03T11:44:06;2.53;;;0.90;;
9420;SDS011;4749;51.398;5.466;2023-04-03T11:46:58;2.92;;;1.00;;
9420;SDS011;4749;51.398;5.466;2023-04-03T12:16:30;2.53;;;0.87;;
9420;SDS011;4749;51.398;5.466;2023-04-03T12:19:46;2.50;;;1.20;;
9420;SDS011;4749;51.398;5.466;2023-04-03T12:22:15;2.42;;;0.80;;
9420;SDS011;4749;51.398;5.466;2023-04-03T12:24:50;1.77;;;0.70;;
9420;SDS011;4749;51.398;5.466;2023-04-03T12:27:23;2.93;;;0.90;;
9420;SDS011;4749;51.398;5.466;2023-04-03T12:29:58;3.10;;;1.02;;
9420;SDS011;4749;51.398;5.466;2023-04-03T12:36:04;1.50;;;0.70;;
9420;SDS011;4749;51.398;5.466;2023-04-03T12:38:52;1.65;;;0.70;;
9420;SDS011;4749;51.398;5.466;2023-04-03T12:41:43;3.80;;;0.80;;
9420;SDS011;4749;51.398;5.466;2023-04-03T12:44:57;1.25;;;0.70;;
9420;SDS011;4749;51.398;5.466;2023-04-03T12:47:48;0.95;;;0.55;;
9420;SDS011;4749;51.398;5.466;2023-04-03T12:53:04;5.65;;;0.90;;
9420;SDS011;4749;51.398;5.466;2023-04-03T12:55:32;1.33;;;0.60;;
9420;SDS011;4749;51.398;5.466;2023-04-03T13:01:13;2.72;;;0.82;;
9420;SDS011;4749;51.398;5.466;2023-04-03T13:03:45;3.95;;;1.10;;
9420;SDS011;4749;51.398;5.466;2023-04-03T13:06:26;1.63;;;0.73;;
9420;SDS011;4749;51.398;5.466;2023-04-03T13:12:11;1.85;;;1.13;;
9420;SDS011;4749;51.398;5.466;2023-04-03T13:14:51;1.58;;;0.90;;
9420;SDS011;4749;51.398;5.466;2023-04-03T13:17:25;3.17;;;0.90;;
9420;SDS011;4749;51.398;5.466;2023-04-03T13:19:54;1.35;;;1.00;;
9420;SDS011;4749;51.398;5.466;2023-04-03T13:22:26;1.08;;;0.60;;
9420;SDS011;4749;51.398;5.466;2023-04-03T13:25:06;1.38;;;0.80;;
9420;SDS011;4749;51.398;5.466;2023-04-03T13:27:35;1.83;;;1.20;;
9420;SDS011;4749;51.398;5.466;2023-04-03T13:30:06;2.72;;;0.77;;
9420;SDS011;4749;51.398;5.466;2023-04-03T13:32:49;1.70;;;0.70;;
9420;SDS011;4749;51.398;5.466;2023-04-03T13:35:54;2.67;;;1.10;;
9420;SDS011;4749;51.398;5.466;2023-04-03T13:40:52;3.63;;;0.90;;
9420;SDS011;4749;51.398;5.466;2023-04-03T13:43:27;1.40;;;0.93;;
9420;SDS011;4749;51.398;5.466;2023-04-03T13:46:00;1.50;;;1.02;;
9420;SDS011;4749;51.398;5.466;2023-04-03T13:48:39;2.38;;;0.80;;
9420;SDS011;4749;51.398;5.466;2023-04-03T13:51:24;1.00;;;0.90;;
9420;SDS011;4749;51.398;5.466;2023-04-03T13:53:57;1.73;;;0.93;;
9420;SDS011;4749;51.398;5.466;2023-04-03T13:56:31;1.58;;;1.00;;
9420;SDS011;4749;51.398;5.466;2023-04-03T13:59:19;1.52;;;0.90;;
9420;SDS011;4749;51.398;5.466;2023-04-03T14:01:53;1.33;;;1.10;;
9420;SDS011;4749;51.398;5.466;2023-04-03T14:04:30;2.95;;;0.95;;
9420;SDS011;4749;51.398;5.466;2023-04-03T14:07:12;2.97;;;1.27;;
9420;SDS011;4749;51.398;5.466;2023-04-03T14:09:42;3.03;;;1.17;;
9420;SDS011;4749;51.398;5.466;2023-04-03T14:12:15;3.85;;;0.90;;
9420;SDS011;4749;51.398;5.466;2023-04-03T14:15:04;1.90;;;1.42;;
9420;SDS011;4749;51.398;5.466;2023-04-03T14:17:43;2.45;;;1.10;;
9420;SDS011;4749;51.398;5.466;2023-04-03T14:20:18;2.65;;;1.20;;
9420;SDS011;4749;51.398;5.466;2023-04-03T14:22:48;3.00;;;1.13;;
9420;SDS011;4749;51.398;5.466;2023-04-03T14:25:17;2.05;;;1.10;;
9420;SDS011;4749;51.398;5.466;2023-04-03T14:27:46;1.20;;;1.00;;
9420;SDS011;4749;51.398;5.466;2023-04-03T14:33:03;3.38;;;0.90;;
9420;SDS011;4749;51.398;5.466;2023-04-03T14:35:32;4.20;;;1.10;;
9420;SDS011;4749;51.398;5.466;2023-04-03T14:37:59;2.25;;;1.00;;
9420;SDS011;4749;51.398;5.466;2023-04-03T14:40:26;3.58;;;1.25;;
9420;SDS011;4749;51.398;5.466;2023-04-03T14:42:54;1.92;;;0.90;;
9420;SDS011;4749;51.398;5.466;2023-04-03T14:45:22;1.80;;;1.00;;
9420;SDS011;4749;51.398;5.466;2023-04-03T14:47:53;2.25;;;0.95;;
9420;SDS011;4749;51.398;5.466;2023-04-03T14:50:23;3.47;;;1.10;;
9420;SDS011;4749;51.398;5.466;2023-04-03T14:52:54;3.03;;;1.27;;
9420;SDS011;4749;51.398;5.466;2023-04-03T14:55:24;3.47;;;1.40;;
9420;SDS011;4749;51.398;5.466;2023-04-03T14:57:53;2.72;;;1.10;;
9420;SDS011;4749;51.398;5.466;2023-04-03T15:00:21;2.88;;;1.50;;
9420;SDS011;4749;51.398;5.466;2023-04-03T15:02:49;2.75;;;1.00;;
9420;SDS011;4749;51.398;5.466;2023-04-03T15:05:16;2.17;;;1.27;;
9420;SDS011;4749;51.398;5.466;2023-04-03T15:07:54;3.25;;;1.42;;
9420;SDS011;4749;51.398;5.466;2023-04-03T15:10:24;2.95;;;1.20;;
9420;SDS011;4749;51.398;5.466;2023-04-03T15:12:57;4.50;;;1.30;;
9420;SDS011;4749;51.398;5.466;2023-04-03T15:15:24;2.58;;;1.20;;
9420;SDS011;4749;51.398;5.466;2023-04-03T15:17:56;2.50;;;1.17;;
9420;SDS011;4749;51.398;5.466;2023-04-03T15:20:25;1.55;;;1.10;;
9420;SDS011;4749;51.398;5.466;2023-04-03T15:22:54;2.97;;;1.40;;
9420;SDS011;4749;51.398;5.466;2023-04-03T15:25:23;3.38;;;1.20;;
9420;SDS011;4749;51.398;5.466;2023-04-03T15:27:52;1.42;;;1.00;;
9420;SDS011;4749;51.398;5.466;2023-04-03T15:30:23;2.35;;;1.40;;
9420;SDS011;4749;51.398;5.466;2023-04-03T15:32:51;4.03;;;1.15;;
9420;SDS011;4749;51.398;5.466;2023-04-03T15:35:19;3.00;;;1.20;;
9420;SDS011;4749;51.398;5.466;2023-04-03T15:37:47;2.80;;;1.30;;
9420;SDS011;4749;51.398;5.466;2023-04-03T15:40:14;2.13;;;1.23;;
9420;SDS011;4749;51.398;5.466;2023-04-03T15:42:42;5.00;;;1.63;;
9420;SDS011;4749;51.398;5.466;2023-04-03T15:45:09;1.90;;;1.00;;
9420;SDS011;4749;51.398;5.466;2023-04-03T15:47:36;4.13;;;1.30;;
9420;SDS011;4749;51.398;5.466;2023-04-03T15:50:04;2.22;;;1.10;;
9420;SDS011;4749;51.398;5.466;2023-04-03T15:52:34;3.67;;;1.20;;
9420;SDS011;4749;51.398;5.466;2023-04-03T15:55:01;3.47;;;1.10;;
9420;SDS011;4749;51.398;5.466;2023-04-03T15:57:30;2.33;;;1.30;;
9420;SDS011;4749;51.398;5.466;2023-04-03T15:59:57;2.78;;;1.23;;
9420;SDS011;4749;51.398;5.466;2023-04-03T16:02:24;3.55;;;1.30;;
9420;SDS011;4749;51.398;5.466;2023-04-03T16:04:54;2.95;;;1.10;;
9420;SDS011;4749;51.398;5.466;2023-04-03T16:07:21;3.13;;;1.13;;
9420;SDS011;4749;51.398;5.466;2023-04-03T16:09:48;2.75;;;1.27;;
9420;SDS011;4749;51.398;5.466;2023-04-03T16:12:16;3.47;;;1.30;;
9420;SDS011;4749;51.398;5.466;2023-04-03T16:14:43;2.88;;;1.30;;
9420;SDS011;4749;51.398;5.466;2023-04-03T16:17:10;4.72;;;1.20;;
9420;SDS011;4749;51.398;5.466;2023-04-03T16:19:37;2.92;;;1.38;;
9420;SDS011;4749;51.398;5.466;2023-04-03T16:22:04;2.17;;;1.27;;
9420;SDS011;4749;51.398;5.466;2023-04-03T16:24:31;1.92;;;1.10;;
9420;SDS011;4749;51.398;5.466;2023-04-03T16:26:59;3.83;;;1.10;;
9420;SDS011;4749;51.398;5.466;2023-04-03T16:29:26;3.08;;;1.10;;
9420;SDS011;4749;51.398;5.466;2023-04-03T16:31:53;2.35;;;1.25;;
9420;SDS011;4749;51.398;5.466;2023-04-03T16:34:20;3.10;;;1.13;;
9420;SDS011;4749;51.398;5.466;2023-04-03T16:36:48;3.17;;;1.20;;
9420;SDS011;4749;51.398;5.466;2023-04-03T16:39:15;2.30;;;1.10;;
9420;SDS011;4749;51.398;5.466;2023-04-03T16:41:42;4.45;;;1.30;;
9420;SDS011;4749;51.398;5.466;2023-04-03T16:44:09;4.35;;;1.30;;
9420;SDS011;4749;51.398;5.466;2023-04-03T16:46:36;5.97;;;1.10;;
9420;SDS011;4749;51.398;5.466;2023-04-03T16:49:04;3.30;;;1.27;;
9420;SDS011;4749;51.398;5.466;2023-04-03T16:51:31;3.30;;;1.33;;
9420;SDS011;4749;51.398;5.466;2023-04-03T16:53:58;2.22;;;1.08;;
9420;SDS011;4749;51.398;5.466;2023-04-03T16:56:26;3.20;;;1.20;;
9420;SDS011;4749;51.398;5.466;2023-04-03T16:58:53;1.73;;;0.88;;
9420;SDS011;4749;51.398;5.466;2023-04-03T17:01:21;2.20;;;1.10;;
9420;SDS011;4749;51.398;5.466;2023-04-03T17:03:49;1.90;;;0.90;;
9420;SDS011;4749;51.398;5.466;2023-04-03T17:06:17;2.42;;;1.02;;
9420;SDS011;4749;51.398;5.466;2023-04-03T17:08:47;2.70;;;1.50;;
9420;SDS011;4749;51.398;5.466;2023-04-03T17:11:17;3.92;;;1.35;;
9420;SDS011;4749;51.398;5.466;2023-04-03T17:13:45;1.88;;;0.98;;
9420;SDS011;4749;51.398;5.466;2023-04-03T17:16:13;2.83;;;1.00;;
9420;SDS011;4749;51.398;5.466;2023-04-03T17:18:42;3.92;;;1.20;;
9420;SDS011;4749;51.398;5.466;2023-04-03T17:21:11;1.67;;;0.95;;